Terminal Aerodrome Forecast
Issued by NWS Cleveland, OH

Home | Current Version | Previous Version | Text Only | Print | Product List | Glossary Off
Versions: 1 2 3 4 5 6 7 8 9 10 11 12 13 14 15 16 17 18 19 20 21 22

255
FTUS41 KCLE 200532
TAFCLE
TAF
KCLE 200532Z 2006/2112 16004KT P6SM OVC080
      TEMPO 2009/2013 3SM BR BKN025
     FM201800 35006KT P6SM OVC050
     FM210200 16003KT P6SM SCT050 BKN100=

USA.gov is the U.S. government's official web portal to all federal, state and local government web resources and services.